Surface/Precipitation History
01/19/2018 08:21  to  1/20/2018 08:21
Change End Date:
Date/Time
(MST)
Sf
Temp Chem Water Layer Surface Precipitation
Sfc Pvt Sub Frz Factor Pct Dpth DpthThk IcePct Cond Salin FI Type Intens Accum Rate
01/20/2018 08:12 Ice Warning 14.9F - 20F 32F 95 1% - - 98% 1 mhos 376 - None None - -
01/20/2018 08:08 Ice Warning 14.9F - 20F 32F 95 1% - - 98% 1 mhos 375 - None None - -
01/20/2018 07:58 Ice Warning 15.1F - 20F 32F 95 1% - - 98% 1 mhos 370 - None None - -
01/20/2018 07:57 Ice Warning 15.3F - 20F 32F 95 1% - - 98% 1 mhos 366 - None None - -
01/20/2018 07:48 Ice Warning 15.3F - 20F 32F 95 1% - - 98% 1 mhos 375 - None None - -
01/20/2018 07:42 Ice Warning 15.4F - 20F 32F 95 1% - - 98% 1 mhos 371 - None None - -
01/20/2018 07:38 Ice Warning 15.4F - 20F 32F 95 1% - - 98% 1 mhos 371 - None None - -
01/20/2018 07:28 Ice Warning 15.1F - 20F 32F 95 1% - - 98% 1 mhos 378 - None None - -
01/20/2018 07:27 Ice Warning 15.1F - 20F 32F 95 1% - - 98% 1 mhos 378 - None None - -
01/20/2018 07:18 Ice Warning 14.9F - 20F 32F 95 1% - - 98% 1 mhos 386 - None None - -
01/20/2018 07:12 Ice Warning 14.9F - 20F 32F 95 1% - - 98% 1 mhos 381 - None None - -
01/20/2018 07:08 Ice Warning 15.1F - 20F 32F 95 1% - - 98% 1 mhos 378 - None None - -
01/20/2018 06:58 Ice Warning 15.3F - 20F 32F 95 1% - - 98% 1 mhos 378 - None None - -
01/20/2018 06:57 Ice Warning 15.4F - 20F 32F 95 1% - - 98% 1 mhos 375 - None None - -
01/20/2018 06:48 Ice Warning 15.3F - 20F 32F 95 1% - - 98% 1 mhos 379 - None None - -
Date/Time
(MST)
Sf
Temp Chem Water Layer Surface Precipitation
Sfc Pvt Sub Frz Factor Pct Dpth DpthThk IcePct Cond Salin FI Type Intens Accum Rate
01/20/2018 06:42 Ice Warning 15.4F - 21F 32F 95 1% - - 98% 1 mhos 376 - None None - -
01/20/2018 06:38 Ice Warning 15.4F - 21F 32F 95 1% - - 98% 1 mhos 376 - None None - -
01/20/2018 06:28 Ice Warning 15.6F - 21F 32F 95 1% - - 98% 1 mhos 373 - None None - -
01/20/2018 06:27 Ice Warning 15.6F - 21F 32F 95 1% - - 98% 1 mhos 374 - None None - -
01/20/2018 06:18 Ice Warning 15.6F - 21F 32F 95 1% - - 98% 1 mhos 373 - None None - -
01/20/2018 06:12 Ice Warning 16.0F - 21F 32F 95 1% - - 98% 1 mhos 365 - None None - -
01/20/2018 06:08 Ice Warning 16.0F - 21F 32F 95 1% - - 98% 1 mhos 365 - None None - -
01/20/2018 05:58 Ice Warning 16.0F - 21F 32F 95 1% - - 98% 1 mhos 366 - None None - -
01/20/2018 05:57 Ice Warning 16.0F - 21F 32F 95 1% - - 98% 1 mhos 364 - None None - -
01/20/2018 05:48 Ice Warning 16.0F - 21F 32F 95 1% - - 98% 1 mhos 363 - None None - -
01/20/2018 05:42 Ice Warning 16.0F - 21F 32F 95 1% - - 98% 1 mhos 365 - None None - -
01/20/2018 05:38 Ice Warning 16.2F - 21F 32F 95 1% - - 98% 1 mhos 361 - None None - -
01/20/2018 05:28 Ice Warning 16.0F - 21F 32F 95 1% - - 98% 1 mhos 370 - None None - -
01/20/2018 05:27 Ice Warning 16.0F - 21F 32F 95 1% - - 98% 1 mhos 372 - None None - -
01/20/2018 05:18 Ice Warning 16.0F - 21F 32F 95 1% - - 98% 1 mhos 372 - None None - -
Date/Time
(MST)
Sf
Temp Chem Water Layer Surface Precipitation
Sfc Pvt Sub Frz Factor Pct Dpth DpthThk IcePct Cond Salin FI Type Intens Accum Rate
01/20/2018 05:12 Ice Warning 16.2F - 21F 32F 95 1% - - 98% 1 mhos 371 - None None - -
01/20/2018 05:08 Ice Warning 16.3F - 21F 32F 95 1% - - 98% 1 mhos 366 - None None - -
01/20/2018 04:58 Ice Warning 16.5F - 22F 32F 95 1% - - 98% 1 mhos 365 - None None - -
01/20/2018 04:57 Ice Warning 16.5F - 22F 32F 95 1% - - 98% 1 mhos 367 - None None - -
01/20/2018 04:48 Ice Warning 16.7F - 22F 32F 95 1% - - 98% 1 mhos 360 - None None - -
01/20/2018 04:42 Ice Warning 16.7F - 22F 32F 95 1% - - 98% 1 mhos 360 - None None - -
01/20/2018 04:38 Ice Warning 16.9F - 22F 32F 95 1% - - 98% 1 mhos 359 - None None - -
01/20/2018 04:28 Ice Warning 16.9F - 22F 32F 95 1% - - 98% 1 mhos 358 - None None - -
01/20/2018 04:27 Ice Warning 16.9F - 22F 32F 95 1% - - 98% 1 mhos 356 - None None - -
01/20/2018 04:18 Ice Warning 17.1F - 22F 32F 95 1% - - 98% 1 mhos 372 - None None - -
01/20/2018 04:12 Ice Warning 17.1F - 22F 32F 95 1% - - 98% 1 mhos 374 - None None - -
01/20/2018 04:08 Ice Warning 17.2F - 22F 32F 95 1% - - 98% 1 mhos 369 - None None - -
01/20/2018 03:57 Ice Warning 17.1F - 22F 32F 95 1% - - 98% 1 mhos 374 - None None - -
01/20/2018 03:57 Ice Warning 17.1F - 22F 32F 95 1% - - 98% 1 mhos 374 - None None - -
01/20/2018 03:47 Ice Warning 17.2F - 22F 32F 95 1% - - 98% 1 mhos 373 - None None - -
Date/Time
(MST)
Sf
Temp Chem Water Layer Surface Precipitation
Sfc Pvt Sub Frz Factor Pct Dpth DpthThk IcePct Cond Salin FI Type Intens Accum Rate
01/20/2018 03:42 Ice Warning 17.2F - 22F 32F 95 1% - - 98% 1 mhos 373 - None None - -
01/20/2018 03:37 Ice Warning 17.2F - 22F 32F 95 1% - - 98% 1 mhos 373 - None None - -
01/20/2018 03:27 Ice Warning 17.4F - 22F 32F 95 1% - - 98% 1 mhos 368 - None None - -
01/20/2018 03:27 Ice Warning 17.4F - 22F 32F 95 1% - - 98% 1 mhos 368 - None None - -
01/20/2018 03:17 Ice Warning 17.4F - 23F 32F 95 1% - - 98% 1 mhos 368 - None None - -
01/20/2018 03:12 Ice Warning 17.4F - 23F 32F 95 1% - - 98% 1 mhos 368 - None None - -
01/20/2018 03:07 Ice Warning 17.6F - 23F 32F 95 1% - - 98% 1 mhos 367 - None None - -
01/20/2018 02:57 Ice Warning 18.0F - 23F 32F 95 1% - - 98% 1 mhos 359 - None None - -
01/20/2018 02:57 Ice Warning 18.0F - 23F 32F 95 1% - - 98% 1 mhos 359 - None None - -
01/20/2018 02:47 Ice Warning 18.3F - 23F 32F 95 1% - - 98% 1 mhos 354 - None None - -
01/20/2018 02:42 Ice Warning 18.3F - 23F 32F 95 1% - - 98% 1 mhos 354 - None None - -
01/20/2018 02:37 Ice Warning 18.3F - 23F 32F 95 1% - - 98% 1 mhos 352 - None None - -
01/20/2018 02:27 Ice Warning 18.1F - 23F 32F 95 1% - - 98% 1 mhos 357 - None None - -
01/20/2018 02:27 Ice Warning 18.1F - 23F 32F 95 1% - - 98% 1 mhos 357 - None None - -
01/20/2018 02:17 Ice Warning 18.1F - 23F 32F 95 1% - - 98% 1 mhos 357 - None None - -
Date/Time
(MST)
Sf
Temp Chem Water Layer Surface Precipitation
Sfc Pvt Sub Frz Factor Pct Dpth DpthThk IcePct Cond Salin FI Type Intens Accum Rate
01/20/2018 02:12 Ice Warning 18.3F - 23F 32F 95 1% - - 98% 1 mhos 352 - None None - -
01/20/2018 02:07 Ice Warning 18.3F - 24F 32F 95 1% - - 98% 1 mhos 350 - None None - -
01/20/2018 01:57 Ice Warning 18.5F - 24F 32F 95 1% - - 98% 1 mhos 350 - None None - -
01/20/2018 01:57 Ice Warning 18.5F - 24F 32F 95 1% - - 98% 1 mhos 350 - None None - -
01/20/2018 01:47 Ice Warning 18.7F - 24F 32F 95 1% - - 98% 1 mhos 349 - None None - -
01/20/2018 01:42 Ice Warning 18.7F - 24F 32F 95 1% - - 98% 1 mhos 347 - None None - -
01/20/2018 01:37 Ice Warning 18.9F - 24F 32F 95 1% - - 98% 1 mhos 344 - None None - -
01/20/2018 01:27 Ice Warning 19.0F - 24F 32F 95 1% - - 98% 1 mhos 344 - None None - -
01/20/2018 01:27 Ice Warning 19.0F - 24F 32F 95 1% - - 98% 1 mhos 344 - None None - -
01/20/2018 01:17 Ice Warning 19.2F - 25F 32F 95 1% - - 98% 1 mhos 337 - None None - -
01/20/2018 01:12 Ice Warning 19.4F - 25F 32F 95 1% - - 98% 1 mhos 335 - None None - -
01/20/2018 01:07 Ice Warning 19.6F - 25F 32F 95 1% - - 98% 1 mhos 332 - None None - -
01/20/2018 00:57 Ice Warning 19.9F - 25F 32F 95 1% - - 98% 1 mhos 329 - None None - -
01/20/2018 00:57 Ice Warning 19.9F - 25F 32F 95 1% - - 98% 1 mhos 329 - None None - -
01/20/2018 00:47 Ice Warning 20.1F - 25F 32F 95 1% - - 98% 1 mhos 332 - None None - -
Date/Time
(MST)
Sf
Temp Chem Water Layer Surface Precipitation
Sfc Pvt Sub Frz Factor Pct Dpth DpthThk IcePct Cond Salin FI Type Intens Accum Rate
01/20/2018 00:42 Ice Warning 20.5F - 25F 32F 95 1% - - 98% 1 mhos 326 - None None - -
01/20/2018 00:37 Ice Warning 20.7F - 26F 32F 95 1% - - 98% 1 mhos 325 - None None - -
01/20/2018 00:27 Ice Warning 21.0F - 26F 32F 95 1% - - 98% 1 mhos 321 - None None - -
01/20/2018 00:27 Ice Warning 21.0F - 26F 32F 95 1% - - 98% 1 mhos 321 - None None - -
01/20/2018 00:17 Ice Warning 21.9F - 26F 32F 95 1% - - 98% 1 mhos 314 - None None - -
01/20/2018 00:12 Ice Warning 21.9F - 26F 32F 95 1% - - 98% 1 mhos 312 - None None - -
01/20/2018 00:07 Ice Warning 21.6F - 26F 32F 95 1% - - 98% 1 mhos 313 - None None - -
01/19/2018 23:57 Ice Warning 20.8F - 26F 32F 95 1% - - 98% 1 mhos 321 - None None - -
01/19/2018 23:57 Ice Warning 20.8F - 26F 32F 95 1% - - 98% 1 mhos 321 - None None - -
01/19/2018 23:47 Ice Warning 20.7F - 26F 32F 95 1% - - 98% 1 mhos 333 - None None - -
01/19/2018 23:42 Ice Warning 20.8F - 26F 32F 95 1% - - 98% 1 mhos 329 - None None - -
01/19/2018 23:37 Ice Warning 21.0F - 26F 32F 95 1% - - 98% 1 mhos 327 - None None - -
01/19/2018 23:27 Ice Warning 20.8F - 26F 32F 95 1% - - 98% 1 mhos 333 - None None - -
01/19/2018 23:26 Ice Warning 20.8F - 26F 32F 95 1% - - 98% 1 mhos 333 - None None - -
01/19/2018 23:16 Ice Warning 21.0F - 26F 32F 95 1% - - 98% 1 mhos 329 - None None - -
Date/Time
(MST)
Sf
Temp Chem Water Layer Surface Precipitation
Sfc Pvt Sub Frz Factor Pct Dpth DpthThk IcePct Cond Salin FI Type Intens Accum Rate
01/19/2018 23:12 Ice Warning 21.0F - 26F 32F 95 1% - - 98% 1 mhos 325 - None None - -
01/19/2018 23:06 Ice Warning 21.0F - 26F 32F 95 1% - - 98% 1 mhos 325 - None None - -
01/19/2018 22:57 Ice Warning 21.2F - 27F 32F 95 1% - - 98% 1 mhos 325 - None None - -
01/19/2018 22:56 Ice Warning 21.2F - 27F 32F 95 1% - - 98% 1 mhos 325 - None None - -
01/19/2018 22:46 Ice Warning 21.4F - 27F 32F 95 1% - - 98% 1 mhos 323 - None None - -
01/19/2018 22:42 Ice Warning 21.6F - 27F 32F 95 1% - - 98% 1 mhos 320 - None None - -
01/19/2018 22:36 Ice Warning 21.7F - 27F 32F 95 1% - - 98% 1 mhos 314 - None None - -
01/19/2018 22:27 Ice Warning 21.6F - 27F 32F 95 1% - - 98% 1 mhos 316 - None None - -
01/19/2018 22:26 Ice Warning 21.6F - 27F 32F 95 1% - - 98% 1 mhos 316 - None None - -
01/19/2018 22:16 Ice Warning 21.4F - 27F 32F 95 1% - - 98% 1 mhos 323 - None None - -
01/19/2018 22:12 Ice Warning 21.4F - 28F 32F 95 1% - - 98% 1 mhos 331 - None None - -
01/19/2018 22:06 Ice Warning 21.6F - 28F 32F 95 1% - - 98% 1 mhos 327 - None None - -
01/19/2018 21:57 Ice Warning 21.7F - 28F 32F 95 1% - - 98% 1 mhos 327 - None None - -
01/19/2018 21:56 Ice Warning 21.7F - 28F 32F 95 1% - - 98% 1 mhos 329 - None None - -
01/19/2018 21:46 Ice Warning 22.1F - 28F 32F 95 1% - - 98% 1 mhos 325 - None None - -
Date/Time
(MST)
Sf
Temp Chem Water Layer Surface Precipitation
Sfc Pvt Sub Frz Factor Pct Dpth DpthThk IcePct Cond Salin FI Type Intens Accum Rate
01/19/2018 21:42 Ice Warning 22.1F - 28F 32F 95 1% - - 98% 1 mhos 323 - None None - -
01/19/2018 21:36 Ice Warning 22.3F - 29F 32F 95 1% - - 98% 2 mhos 344 - None None - -
01/19/2018 21:27 Ice Warning 22.6F - 29F 32F 95 1% - - 98% 2 mhos 338 - None None - -
01/19/2018 21:26 Ice Warning 22.6F - 29F 32F 95 1% - - 98% 2 mhos 340 - None None - -
01/19/2018 21:16 Ice Warning 23.2F - 29F 32F 95 1% - - 98% 2 mhos 330 - None None - -
01/19/2018 21:12 Ice Warning 23.2F - 29F 32F 95 1% - - 98% 2 mhos 328 - None None - -
01/19/2018 21:06 Ice Warning 23.5F - 30F 32F 95 1% - - 98% 2 mhos 330 - None None - -
01/19/2018 20:57 Ice Warning 24.1F - 30F 32F 95 1% - - 97% 2 mhos 322 - None None - -
01/19/2018 20:56 Ice Warning 24.1F - 30F 32F 95 1% - - 97% 2 mhos 325 - None None - -
01/19/2018 20:46 Ice Warning 24.4F - 30F 32F 95 1% - - 97% 2 mhos 325 - None None - -
01/19/2018 20:42 Ice Warning 24.8F - 30F 32F 95 1% - - 97% 2 mhos 320 - None None - -
01/19/2018 20:36 Ice Warning 25.2F - 30F 32F 95 1% - - 97% 2 mhos 317 - None None - -
01/19/2018 20:27 Ice Warning 25.7F - 31F 32F 95 1% - - 97% 2 mhos 309 - None None - -
01/19/2018 20:26 Ice Warning 25.7F - 31F 32F 95 1% - - 97% 2 mhos 311 - None None - -
01/19/2018 20:16 Ice Warning 26.1F - 31F 32F 95 1% - - 97% 2 mhos 284 - None None - -
Date/Time
(MST)
Sf
Temp Chem Water Layer Surface Precipitation
Sfc Pvt Sub Frz Factor Pct Dpth DpthThk IcePct Cond Salin FI Type Intens Accum Rate
01/19/2018 20:12 Ice Warning 26.2F - 31F 32F 95 1% - - 97% 2 mhos 276 - None None - -
01/19/2018 20:06 Ice Warning 26.2F - 31F 32F 95 1% - - 97% 2 mhos 271 - None None - -
01/19/2018 19:57 Ice Warning 26.4F - 31F 32F 95 1% - - 98% 1 mhos 185 - None None - -
01/19/2018 19:56 Ice Warning 26.4F - 31F 32F 95 1% - - 98% 1 mhos 180 - None None - -
01/19/2018 19:46 Ice Warning 27.3F - 31F 32F 95 1% - - 98% 1 mhos 163 - None None - -
01/19/2018 19:42 Ice Warning 27.5F - 31F 32F 95 1% - - 98% 1 mhos 162 - None None - -
01/19/2018 19:36 Ice Warning 27.9F - 31F 32F 95 1% - - 98% 1 mhos 169 - None None - -
01/19/2018 19:27 Ice Warning 28.4F - 31F 32F 95 1% - - 97% 1 mhos 190 - None None - -
01/19/2018 19:26 Ice Warning 28.4F - 31F 32F 95 1% - - 97% 1 mhos 190 - None None - -
01/19/2018 19:16 Ice Warning 28.8F - 31F 32F 95 1% - - 97% 2 mhos 203 - None None - -
01/19/2018 19:12 Ice Warning 28.8F - 31F 32F 95 1% - - 97% 2 mhos 204 - None None - -
01/19/2018 19:06 Ice Warning 28.8F - 31F 32F 95 1% - - 97% 2 mhos 203 - None None - -
01/19/2018 18:57 Ice Warning 28.8F - 31F 32F 95 1% - - 97% 2 mhos 211 - None None - -
01/19/2018 18:56 Ice Warning 28.8F - 31F 32F 95 1% - - 97% 2 mhos 211 - None None - -
01/19/2018 18:45 Ice Warning 28.9F - 31F 32F 95 1% - - 97% 2 mhos 210 - None None - -
Date/Time
(MST)
Sf
Temp Chem Water Layer Surface Precipitation
Sfc Pvt Sub Frz Factor Pct Dpth DpthThk IcePct Cond Salin FI Type Intens Accum Rate
01/19/2018 18:42 Ice Warning 28.9F - 31F 32F 95 1% - - 97% 2 mhos 205 - None None - -
01/19/2018 18:35 Ice Warning 29.1F - 31F 32F 95 1% - - 97% 2 mhos 199 - None None - -
01/19/2018 18:27 Ice Warning 29.3F - 31F 32F 95 1% - - 97% 2 mhos 191 - None None - -
01/19/2018 18:25 Ice Warning 29.5F - 32F 32F 95 1% - - 96% 2 mhos 190 - None None - -
01/19/2018 18:15 Ice Warning 29.7F - 32F 32F 95 1% - - 97% 1 mhos 163 - None None - -
01/19/2018 18:12 Ice Warning 29.7F - 32F 32F 95 1% - - 97% 1 mhos 157 - None None - -
01/19/2018 18:05 Ice Warning 29.7F - 32F 32F 95 0% - - 97% 1 mhos 144 - None None - -
01/19/2018 17:57 Ice Warning 29.8F - 32F 32F 95 0% - - 99% 0 mhos 56 - None None - -
01/19/2018 17:55 Ice Warning 29.8F - 32F 32F 95 0% - - 99% 0 mhos 31 - None None - -
01/19/2018 17:45 Ice Warning 30.2F - 32F 32F 95 0% - - 99% 0 mhos 28 - None None - -
01/19/2018 17:42 Ice Warning 30.2F - 32F 32F 95 0% - - 99% 0 mhos 27 - None None - -
01/19/2018 17:35 Ice Warning 30.4F - 32F 32F 95 0% - - 99% 0 mhos 25 - None None - -
01/19/2018 17:27 Ice Warning 30.7F - 32F 32F 95 0% - - 98% 1 mhos 72 - None None - -
01/19/2018 17:25 Ice Warning 30.9F - 32F 32F 95 0% - - 97% 1 mhos 70 - None None - -
01/19/2018 17:15 Ice Warning 31.1F - 32F 32F 95 0% - - 97% 1 mhos 66 - Yes - - -
Date/Time
(MST)
Sf
Temp Chem Water Layer Surface Precipitation
Sfc Pvt Sub Frz Factor Pct Dpth DpthThk IcePct Cond Salin FI Type Intens Accum Rate
01/19/2018 17:12 Ice Warning 31.1F - 32F 32F 95 0% - - 98% 0 mhos 44 - None None - -
01/19/2018 17:05 Ice Warning 31.3F - 32F 32F 95 0% - - 92% 1 mhos 129 - None None - -
01/19/2018 16:57 Ice Warning 31.3F - 32F 32F 95 0% - - 92% 1 mhos 134 - None None - -
01/19/2018 16:55 Ice Warning 31.3F - 32F 32F 95 0% - - 92% 1 mhos 137 - None None - -
01/19/2018 16:45 Ice Warning 31.5F - 32F 32F 95 1% - - 88% 1 mhos 155 - None None - -
01/19/2018 16:42 Ice Warning 31.5F - 32F 32F 95 1% - - 87% 2 mhos 163 - Yes - - -
01/19/2018 16:35 Ice Warning 31.5F - 32F 32F 95 1% - - 87% 2 mhos 161 - None None - -
01/19/2018 16:27 Ice Warning 31.5F - 32F 32F 95 0% - - 90% 1 mhos 134 - None None - -
01/19/2018 16:25 Ice Warning 31.6F - 32F 32F 95 0% - - 85% 1 mhos 134 - Yes - - -
01/19/2018 16:15 Chemically Wet 31.5F - 32F 32F 95 1% - - 84% 2 mhos 204 - Yes - - -
01/19/2018 16:12 Ice Warning 31.5F - 32F 32F 95 0% - - 93% 1 mhos 94 - Yes - - -
01/19/2018 16:05 Chemically Wet 31.5F - 32F 31F 95 2% - - 52% 6 mhos 609 - Yes - - -
01/19/2018 15:57 Chemically Wet 31.5F - 32F 31F 95 3% 0.00 in - 0% 8 mhos 795 - None None - -
01/19/2018 15:55 Chemically Wet 31.5F - 32F 31F 95 3% 0.00 in - 0% 8 mhos 779 - None None - -
01/19/2018 15:45 Wet 32.2F - 32F 32F 95 1% 0.00 in - 0% 3 mhos 271 - None None - -
Date/Time
(MST)
Sf
Temp Chem Water Layer Surface Precipitation
Sfc Pvt Sub Frz Factor Pct Dpth DpthThk IcePct Cond Salin FI Type Intens Accum Rate
01/19/2018 15:42 Wet 32.4F - 32F 32F 95 0% 0.00 in - 0% 0 mhos 36 - None None - -
01/19/2018 15:35 Wet 32.4F - 32F 32F 95 0% 0.00 in - 0% 0 mhos 38 - None None - -
01/19/2018 15:27 Wet 32.4F - 32F 32F 50 0% 0.00 in - 0% 0 mhos 31 - None None - -
01/19/2018 15:25 Wet 32.4F - 32F 32F 45 0% 0.00 in - 0% 0 mhos 20 - None None - -
01/19/2018 15:15 Wet 32.4F - 32F 32F 95 0% 0.10 in - 0% 0 mhos 28 - None None - -
01/19/2018 15:12 Wet 32.4F - 32F 32F 95 0% 0.10 in - 0% 0 mhos 27 - None None - -
01/19/2018 15:05 Wet 32.4F - 32F 32F 85 0% 0.00 in - 0% 0 mhos 22 - None None - -
01/19/2018 14:57 Wet 32.4F - 32F 32F 65 0% 0.00 in - 0% 0 mhos 18 - None None - -
01/19/2018 14:55 Wet 32.4F - 32F 32F 30 0% 0.00 in - 0% 0 mhos 13 - None None - -
01/19/2018 14:45 Wet 32.4F - 32F 32F 15 0% 0.00 in - 0% 0 mhos 8 - None None - -
01/19/2018 14:42 Wet 32.4F - 32F 32F 15 0% 0.00 in - 0% 0 mhos 7 - None None - -
01/19/2018 14:35 Wet 32.4F - 32F 32F 10 0% 0.00 in - 0% 0 mhos 8 - Yes - - -
01/19/2018 14:27 Wet 32.4F - 32F 32F 55 0% 0.00 in - 0% 0 mhos 17 - Yes - - -
01/19/2018 14:25 Wet 32.4F - 32F 32F 65 0% 0.00 in - 0% 0 mhos 18 - None None - -
01/19/2018 14:15 Wet 32.4F - 32F 32F 90 0% 0.10 in - 0% 0 mhos 18 - Yes - - -
Date/Time
(MST)
Sf
Temp Chem Water Layer Surface Precipitation
Sfc Pvt Sub Frz Factor Pct Dpth DpthThk IcePct Cond Salin FI Type Intens Accum Rate
01/19/2018 14:12 Wet 32.4F - 32F 32F 55 0% 0.00 in - 0% 0 mhos 19 - Yes - - -
01/19/2018 14:04 Wet 32.4F - 32F 32F 60 0% 0.00 in - 0% 0 mhos 14 - Yes - - -
01/19/2018 13:57 Wet 32.4F - 32F 32F 60 0% 0.00 in - 0% 0 mhos 22 - None None - -
01/19/2018 13:54 Wet 32.4F - 32F 32F 55 0% 0.00 in - 0% 0 mhos 19 - None None - -
01/19/2018 13:44 Wet 32.4F - 32F 32F 90 0% 0.10 in - 0% 0 mhos 11 - None None - -
01/19/2018 13:42 Wet 32.4F - 32F 32F 80 0% 0.10 in - 0% 0 mhos 13 - None None - -
01/19/2018 13:34 Wet 32.4F - 32F 32F 65 0% 0.00 in - 0% 0 mhos 1 - Yes - - -
01/19/2018 13:27 Wet 32.4F - 32F 32F 60 0% 0.50 in - 0% 0 mhos 3 - Yes - - -
01/19/2018 13:24 Wet 32.4F - 32F 32F 60 0% 0.30 in - 0% 0 mhos 3 - Yes - - -
01/19/2018 13:14 Wet 32.2F - 32F 32F 45 0% 0.20 in - 0% 0 mhos 3 - Yes - - -
01/19/2018 13:12 Wet 32.4F - 32F 32F 50 0% 0.20 in - 0% 0 mhos 3 - Yes - - -
01/19/2018 13:04 Wet 32.4F - 32F 32F 80 0% 1.80 in - 0% 0 mhos 3 - Yes - - -
01/19/2018 12:57 Wet 32.4F - 32F 32F 75 0% 0.30 in - 0% 0 mhos 4 - None None - -
01/19/2018 12:54 Wet 32.4F - 32F 32F 80 0% 0.20 in - 0% 0 mhos 6 - Yes - - -
01/19/2018 12:44 Wet 32.4F - 32F 32F 90 0% 0.20 in - 0% 0 mhos 7 - Yes - - -
Date/Time
(MST)
Sf
Temp Chem Water Layer Surface Precipitation
Sfc Pvt Sub Frz Factor Pct Dpth DpthThk IcePct Cond Salin FI Type Intens Accum Rate
01/19/2018 12:42 Wet 32.4F - 32F 32F 45 0% 0.10 in - 0% 0 mhos 5 - Yes - - -
01/19/2018 12:34 Wet 32.4F - 32F 32F 25 0% 0.00 in - 0% 0 mhos 23 - None None - -
01/19/2018 12:27 Wet 32.4F - 32F 32F 35 0% 0.00 in - 0% 0 mhos 12 - Yes - - -
01/19/2018 12:24 Wet 32.4F - 32F 32F 95 0% 0.10 in - 0% 0 mhos 13 - Yes - - -
01/19/2018 12:14 Wet 32.5F - 32F 32F 90 0% 0.00 in - 0% 0 mhos 43 - Yes - - -
01/19/2018 12:12 Wet 32.5F - 32F 32F 95 0% 0.00 in - 0% 0 mhos 48 - Yes - - -
01/19/2018 12:04 Wet 33.3F - 32F 32F 95 0% 0.00 in - 0% 1 mhos 142 - Yes - - -
01/19/2018 11:57 Wet 33.6F - 32F 32F 95 1% 0.00 in - 0% 2 mhos 164 - Yes - - -
01/19/2018 11:54 Wet 33.6F - 32F 32F 95 1% 0.00 in - 0% 2 mhos 169 - None None - -
01/19/2018 11:44 Wet 33.4F - 32F 32F 95 1% 0.00 in - 0% 2 mhos 201 - None None - -
01/19/2018 11:42 Wet 33.6F - 32F 32F 95 1% 0.00 in - 0% 2 mhos 209 - Yes - - -
01/19/2018 11:34 Wet 35.4F - 32F 32F 95 1% 0.00 in - 0% 3 mhos 243 - Yes - - -
01/19/2018 11:27 Wet 35.8F - 32F 32F 95 1% 0.00 in - 0% 3 mhos 245 - None None - -
01/19/2018 11:24 Wet 36.0F - 32F 32F 95 1% 0.00 in - 0% 3 mhos 252 - None None - -
01/19/2018 11:14 Wet 35.8F - 32F 32F 95 1% 0.00 in - 0% 3 mhos 258 - None None - -
Date/Time
(MST)
Sf
Temp Chem Water Layer Surface Precipitation
Sfc Pvt Sub Frz Factor Pct Dpth DpthThk IcePct Cond Salin FI Type Intens Accum Rate
01/19/2018 11:12 Wet 35.8F - 32F 32F 95 1% 0.00 in - 0% 3 mhos 251 - None None - -
01/19/2018 11:04 Wet 35.8F - 32F 32F 95 1% 0.00 in - 0% 3 mhos 278 - None None - -
01/19/2018 10:57 Wet 35.6F - 32F 32F 95 1% 0.00 in - 0% 3 mhos 297 - None None - -
01/19/2018 10:54 Wet 35.6F - 32F 32F 95 1% 0.00 in - 0% 2 mhos 236 - None None - -
01/19/2018 10:44 Wet 35.2F - 32F 32F 95 1% 0.00 in - 0% 4 mhos 397 - Yes - - -
01/19/2018 10:42 Wet 35.1F - 31F 32F 95 1% 0.00 in - 0% 4 mhos 406 - None None - -
01/19/2018 10:34 Wet 34.7F - 31F 32F 95 1% 0.00 in - 0% 2 mhos 183 - None None - -
01/19/2018 10:27 Wet 34.5F - 31F 31F 95 2% 0.00 in - 0% 6 mhos 588 - None None - -
01/19/2018 10:24 Wet 34.2F - 31F 31F 95 2% 0.00 in - 0% 6 mhos 595 - None None - -
01/19/2018 10:14 Wet 33.8F - 31F 31F 95 2% 0.00 in - 0% 7 mhos 673 - None None - -
01/19/2018 10:12 Wet 33.6F - 31F 32F 95 2% 0.00 in - 0% 5 mhos 490 - None None - -
01/19/2018 10:04 Wet 33.3F - 31F 31F 95 2% 0.00 in - 0% 7 mhos 685 - None None - -
01/19/2018 09:57 Wet 33.1F - 31F 32F 95 2% 0.00 in - 0% 5 mhos 488 - None None - -
01/19/2018 09:54 Wet 32.9F - 31F 32F 95 2% 0.00 in - 0% 5 mhos 518 - None None - -
01/19/2018 09:44 Wet 32.2F - 31F 32F 95 2% 0.00 in - 0% 5 mhos 543 - None None - -
Date/Time
(MST)
Sf
Temp Chem Water Layer Surface Precipitation
Sfc Pvt Sub Frz Factor Pct Dpth DpthThk IcePct Cond Salin FI Type Intens Accum Rate
01/19/2018 09:42 Wet 32.2F - 31F 32F 95 2% 0.00 in - 0% 5 mhos 540 - None None - -
01/19/2018 09:34 Chemically Wet 31.8F - 31F 32F 95 2% 0.00 in - 0% 5 mhos 535 - None None - -
01/19/2018 09:27 Chemically Wet 31.6F - 31F 31F 95 2% 0.00 in - 0% 7 mhos 717 - None None - -
01/19/2018 09:24 Chemically Wet 31.6F - 31F 31F 95 2% 0.00 in - 0% 7 mhos 716 - None None - -
01/19/2018 09:14 Chemically Wet 31.5F - 31F 32F 95 2% - - 60% 5 mhos 508 - None None - -
01/19/2018 09:12 Chemically Wet 31.3F - 31F 32F 95 2% - - 72% 4 mhos 452 - None None - -
01/19/2018 09:04 Chemically Wet 31.3F - 31F 32F 95 1% - - 74% 4 mhos 428 - None None - -
01/19/2018 08:57 Chemically Wet 31.3F - 31F 32F 95 1% - - 78% 3 mhos 354 - None None - -
01/19/2018 08:54 Chemically Wet 31.3F - 31F 32F 95 1% - - 82% 3 mhos 298 - None None - -
01/19/2018 08:43 Ice Warning 31.1F - 31F 32F 95 1% - - 88% 2 mhos 237 - None None - -
01/19/2018 08:33 Ice Warning 31.1F - 31F 32F 95 1% - - 90% 2 mhos 231 - None None - -
01/19/2018 08:27 Ice Warning 31.1F - 31F 32F 95 1% - - 90% 2 mhos 235 - None None - -
01/19/2018 08:23 Ice Warning 30.9F - 31F 32F 95 1% - - 93% 2 mhos 193 - None None - -
Change End Date:

Copyright © 1998-2015 Vaisala, Inc.
All Rights Reserved
Send comments about the data to:
SCAN Web ® is a registered trademark of Vaisala, Inc.
SCAN Web Version 6.0